Time;durP1;ratioP1;P1;durP2;ratioP2;P2;SDS_P1;SDS_P2;PMS_P1;PMS_P2;Temp;Humidity;BMP_temperature;BMP_pressure;BME280_temperature;BME280_humidity;BME280_pressure;Samples;Min_cycle;Max_cycle;Signal;HPM_P1;HPM_P2
2022/12/23 00:01:20;;;;;;;3.88;2.90;;;;;;;2.04;96.11;99275.06;10496298;28;20044;-73
2022/12/23 00:06:23;;;;;;;3.90;3.00;;;;;;;2.03;95.63;99269.91;10511434;28;20039;-72
2022/12/23 00:11:27;;;;;;;4.30;2.88;;;;;;;2.05;96.17;99267.75;10496074;28;20063;-72
2022/12/23 00:16:29;;;;;;;3.92;3.05;;;;;;;2.01;95.79;99266.66;10507981;28;20040;-73
2022/12/23 00:21:32;;;;;;;4.18;2.78;;;;;;;1.98;95.61;99267.19;10500121;28;20128;-70
2022/12/23 00:26:34;;;;;;;4.18;2.80;;;;;;;1.97;96.00;99270.97;10486124;28;20040;-70
2022/12/23 00:31:36;;;;;;;5.00;3.00;;;;;;;1.95;95.70;99257.69;10497990;28;20044;-71
2022/12/23 00:36:39;;;;;;;4.47;3.00;;;;;;;2.03;96.32;99251.78;10532060;28;20059;-71
2022/12/23 00:47:02;;;;;;;4.68;3.10;;;;;;;2.18;96.15;99248.38;10507887;28;20059;-70
2022/12/23 00:52:07;;;;;;;6.10;3.65;;;;;;;2.20;95.32;99261.66;10531947;28;20056;-71
2022/12/23 00:57:09;;;;;;;4.57;2.85;;;;;;;2.18;95.43;99269.22;10516633;28;20499;-71
2022/12/23 01:07:32;;;;;;;3.58;2.55;;;;;;;2.20;94.96;99267.06;10471112;28;20455;-71
2022/12/23 01:12:34;;;;;;;3.70;2.40;;;;;;;2.10;95.07;99267.81;10472769;28;20048;-71
2022/12/23 01:17:36;;;;;;;6.47;3.38;;;;;;;2.14;95.66;99260.00;10502974;28;20514;-71
2022/12/23 01:22:39;;;;;;;5.53;2.85;;;;;;;2.14;95.78;99251.88;10501039;28;20032;-71
2022/12/23 01:27:41;;;;;;;3.55;2.70;;;;;;;2.22;95.06;99256.78;10507363;28;20044;-71
2022/12/23 01:32:43;;;;;;;3.15;2.53;;;;;;;2.14;94.94;99251.88;10511737;28;20529;-71
2022/12/23 01:37:45;;;;;;;5.68;2.60;;;;;;;2.11;95.38;99251.31;10524736;28;20747;-71
2022/12/23 01:42:47;;;;;;;3.17;2.35;;;;;;;2.02;95.22;99227.69;10519797;28;20060;-71
2022/12/23 01:53:46;;;;;;;4.03;2.47;;;;;;;2.28;94.73;99232.22;10511120;28;20052;-70
2022/12/23 01:58:52;;;;;;;4.57;2.60;;;;;;;2.21;94.20;99236.22;10514553;28;20089;-71
2022/12/23 02:04:02;;;;;;;2.85;2.53;;;;;;;2.20;94.52;99235.41;10524290;28;20040;-70
2022/12/23 02:09:18;;;;;;;2.92;2.22;;;;;;;2.24;93.93;99241.09;10506871;28;20040;-70
2022/12/23 02:20:44;;;;;;;3.47;2.30;;;;;;;2.40;93.48;99232.00;10522383;28;20085;-70
2022/12/23 02:26:27;;;;;;;2.88;2.33;;;;;;;2.27;92.83;99235.19;10511603;28;20060;-71
2022/12/23 02:31:52;;;;;;;5.60;3.17;;;;;;;2.28;93.04;99218.69;10522084;28;20040;-70
2022/12/23 02:37:36;;;;;;;4.53;2.83;;;;;;;2.22;93.38;99225.13;10513865;28;20052;-70
2022/12/23 02:42:57;;;;;;;4.15;3.10;;;;;;;2.27;93.84;99224.38;10505255;28;20048;-71
2022/12/23 02:48:07;;;;;;;2.97;2.60;;;;;;;2.32;93.58;99225.22;10473989;28;20048;-71
2022/12/23 02:53:15;;;;;;;4.32;3.00;;;;;;;2.41;93.05;99231.75;10487070;28;20040;-70
2022/12/23 02:58:20;;;;;;;4.03;2.70;;;;;;;2.34;93.30;99223.03;10490246;28;20045;-70
2022/12/23 03:03:23;;;;;;;5.30;3.22;;;;;;;2.29;93.26;99217.63;10502291;28;20063;-70
2022/12/23 03:08:31;;;;;;;4.72;3.22;;;;;;;2.50;93.18;99199.59;10520357;28;20491;-70
2022/12/23 03:14:05;;;;;;;4.75;3.60;;;;;;;2.52;92.67;99210.16;10482304;28;20045;-70
2022/12/23 03:19:14;;;;;;;6.65;3.42;;;;;;;2.47;92.59;99205.53;10465818;28;20045;-69
2022/12/23 03:24:31;;;;;;;5.88;3.70;;;;;;;2.56;92.65;99189.59;10521212;28;20309;-70
2022/12/23 03:29:41;;;;;;;5.40;3.03;;;;;;;2.51;92.51;99193.09;10520117;28;20055;-71
2022/12/23 03:34:47;;;;;;;5.07;3.40;;;;;;;2.45;93.04;99183.31;10478568;28;20049;-70
2022/12/23 03:39:55;;;;;;;6.07;3.22;;;;;;;2.37;92.61;99186.50;10467752;28;20037;-69
2022/12/23 03:45:00;;;;;;;7.03;3.90;;;;;;;2.35;92.42;99184.06;10525105;28;20045;-70
2022/12/23 03:50:07;;;;;;;5.10;3.13;;;;;;;2.32;93.07;99183.78;10505803;28;20036;-70
2022/12/23 03:55:16;;;;;;;5.90;3.28;;;;;;;2.40;93.17;99170.56;10514659;28;20045;-71
2022/12/23 04:00:18;;;;;;;7.03;3.90;;;;;;;2.55;93.22;99177.13;10513737;28;20043;-70
2022/12/23 04:05:25;;;;;;;5.80;3.55;;;;;;;2.41;92.50;99158.66;10514910;28;20048;-71
2022/12/23 04:10:27;;;;;;;6.90;3.63;;;;;;;2.44;92.74;99149.22;10510717;28;20044;-71
2022/12/23 04:15:30;;;;;;;5.95;3.33;;;;;;;2.36;92.29;99152.41;10512977;28;20043;-71
2022/12/23 04:20:33;;;;;;;6.15;3.30;;;;;;;2.20;92.78;99153.41;10513023;28;20032;-72
2022/12/23 04:25:35;;;;;;;6.78;3.72;;;;;;;2.16;93.25;99146.91;10511414;28;20527;-72
2022/12/23 04:30:38;;;;;;;5.35;3.33;;;;;;;2.06;92.84;99151.16;10522767;28;20525;-69
2022/12/23 04:35:41;;;;;;;5.97;2.85;;;;;;;1.91;93.31;99151.09;10509997;28;20043;-70
2022/12/23 04:40:46;;;;;;;5.35;2.83;;;;;;;1.92;93.75;99146.50;10530664;28;20055;-71
2022/12/23 04:45:50;;;;;;;3.28;2.55;;;;;;;1.85;94.51;99151.31;10491521;28;20036;-70
2022/12/23 04:50:52;;;;;;;5.75;2.78;;;;;;;1.88;94.38;99143.47;10521906;28;20051;-69
2022/12/23 04:55:55;;;;;;;4.00;2.45;;;;;;;1.75;94.11;99141.25;10527805;28;20475;-69
2022/12/23 05:01:04;;;;;;;3.17;2.47;;;;;;;1.70;94.57;99143.91;10524114;28;20056;-69
2022/12/23 05:06:07;;;;;;;4.22;2.63;;;;;;;1.67;94.65;99123.59;10491089;28;20045;-69
2022/12/23 05:11:10;;;;;;;4.13;2.67;;;;;;;1.56;94.46;99119.19;10517624;28;20407;-69
2022/12/23 05:16:12;;;;;;;3.90;2.45;;;;;;;1.41;94.79;99127.22;10526862;28;20056;-69
2022/12/23 05:21:15;;;;;;;4.93;2.65;;;;;;;1.40;94.66;99125.59;10526500;28;20045;-70
2022/12/23 05:26:21;;;;;;;5.85;2.85;;;;;;;1.50;95.22;99112.94;10521378;28;22003;-70
2022/12/23 05:31:27;;;;;;;4.47;2.80;;;;;;;1.50;95.09;99117.53;10527153;28;20048;-72
2022/12/23 05:36:30;;;;;;;4.50;3.03;;;;;;;1.36;94.82;99109.03;10513595;28;20045;-70
2022/12/23 05:41:33;;;;;;;4.03;3.00;;;;;;;1.11;95.16;99117.78;10508368;28;20392;-69
2022/12/23 05:46:36;;;;;;;3.67;2.88;;;;;;;1.02;94.81;99107.66;10525999;28;20041;-70
2022/12/23 05:51:38;;;;;;;4.55;3.10;;;;;;;0.84;94.71;99109.66;10521302;28;20036;-70
2022/12/23 06:02:08;;;;;;;6.05;3.67;;;;;;;0.72;96.07;99108.22;10509046;28;20047;-70
2022/12/23 06:07:15;;;;;;;5.07;3.42;;;;;;;0.78;96.84;99102.59;10528270;28;20045;-70
2022/12/23 06:12:18;;;;;;;4.57;3.25;;;;;;;0.71;96.85;99099.31;10509612;28;20066;-70
2022/12/23 06:17:20;;;;;;;5.15;3.40;;;;;;;0.98;97.05;99099.28;10464766;28;20444;-70
2022/12/23 06:22:22;;;;;;;5.47;3.42;;;;;;;0.96;97.24;99096.00;10500151;28;20507;-72
2022/12/23 06:27:24;;;;;;;3.75;2.85;;;;;;;0.95;97.40;99105.19;10474417;28;20060;-74
2022/12/23 06:32:27;;;;;;;5.35;3.50;;;;;;;0.97;97.29;99100.34;10517076;28;20052;-70
2022/12/23 06:37:29;;;;;;;4.72;3.25;;;;;;;0.84;97.55;99103.47;10504685;28;20036;-70
2022/12/23 06:42:31;;;;;;;5.15;3.40;;;;;;;0.84;97.26;99098.88;10486325;28;20400;-70
2022/12/23 06:47:58;;;;;;;5.05;3.42;;;;;;;0.85;97.53;99105.91;10522668;28;20056;-70
2022/12/23 06:53:00;;;;;;;6.95;3.78;;;;;;;0.93;97.56;99095.72;10510816;28;20048;-71
2022/12/23 06:58:04;;;;;;;4.22;3.08;;;;;;;0.76;97.21;99098.53;10485272;28;20048;-70
2022/12/23 07:03:06;;;;;;;5.35;3.72;;;;;;;0.66;97.79;99101.09;10467271;28;20036;-71
2022/12/23 07:08:08;;;;;;;5.05;3.30;;;;;;;0.50;97.92;99095.53;10499103;28;20541;-71
2022/12/23 07:13:11;;;;;;;4.80;3.42;;;;;;;0.46;98.05;99085.53;10525162;28;20049;-71
2022/12/23 07:18:13;;;;;;;5.88;3.90;;;;;;;0.42;98.67;99076.31;10503930;28;20041;-70
2022/12/23 07:23:16;;;;;;;5.80;3.67;;;;;;;0.30;98.41;99079.13;10526310;28;20057;-71
2022/12/23 07:28:18;;;;;;;3.53;2.88;;;;;;;0.27;98.26;99080.47;10525546;28;20444;-71
2022/12/23 07:33:20;;;;;;;5.13;3.42;;;;;;;0.27;98.63;99072.38;10526064;28;20526;-70
2022/12/23 07:38:22;;;;;;;6.22;3.40;;;;;;;0.19;98.65;99064.72;10489724;28;20052;-71
2022/12/23 07:43:24;;;;;;;5.93;3.60;;;;;;;0.35;99.50;99065.72;10483101;28;20527;-71
2022/12/23 07:48:26;;;;;;;3.92;3.22;;;;;;;0.47;98.71;99055.59;10479085;28;20045;-71
2022/12/23 07:53:29;;;;;;;4.95;3.38;;;;;;;0.66;99.44;99064.13;10442694;28;20050;-71
2022/12/23 07:58:31;;;;;;;6.70;3.58;;;;;;;0.59;99.68;99047.34;10444860;28;20448;-70
2022/12/23 08:03:33;;;;;;;6.10;3.67;;;;;;;0.67;99.98;99054.16;10478369;28;20048;-70
2022/12/23 08:08:36;;;;;;;7.45;4.35;;;;;;;0.69;100.00;99042.03;10483546;28;20083;-71
2022/12/23 08:13:39;;;;;;;6.07;3.97;;;;;;;0.80;99.85;99043.75;10463103;28;20052;-70
2022/12/23 08:18:42;;;;;;;7.70;4.45;;;;;;;0.84;99.54;99033.25;10465476;28;20051;-70
2022/12/23 08:23:46;;;;;;;6.40;4.38;;;;;;;0.91;99.68;99028.47;10482485;28;20052;-71
2022/12/23 08:28:48;;;;;;;8.70;4.15;;;;;;;1.07;99.43;99034.81;10488718;28;20056;-71
2022/12/23 08:33:53;;;;;;;6.25;4.55;;;;;;;1.03;99.00;99028.28;10472187;28;20041;-71
2022/12/23 08:38:57;;;;;;;6.55;4.80;;;;;;;0.99;98.80;99022.56;10495757;28;20052;-71
2022/12/23 08:43:59;;;;;;;8.82;5.63;;;;;;;1.07;98.53;99021.31;10527262;28;20067;-71
2022/12/23 08:49:02;;;;;;;10.02;4.95;;;;;;;1.06;98.51;99016.97;10531341;28;20040;-72
2022/12/23 08:54:05;;;;;;;12.07;5.43;;;;;;;1.00;98.34;99015.28;10530901;28;20056;-70
2022/12/23 08:59:14;;;;;;;11.48;5.50;;;;;;;1.13;98.11;99007.56;10505588;28;20045;-70
2022/12/23 09:04:16;;;;;;;12.30;5.70;;;;;;;1.18;98.15;99004.88;10489201;28;20041;-70
2022/12/23 09:09:18;;;;;;;7.20;4.80;;;;;;;1.39;97.95;99007.72;10506710;28;20395;-70
2022/12/23 09:14:20;;;;;;;11.23;5.07;;;;;;;1.47;97.43;98999.94;10513375;28;20048;-71
2022/12/23 09:19:23;;;;;;;9.68;5.00;;;;;;;1.49;97.08;98991.56;10528746;28;20048;-70
2022/12/23 09:24:25;;;;;;;7.90;5.45;;;;;;;1.55;96.85;98984.28;10526185;28;20440;-70
2022/12/23 09:29:27;;;;;;;7.60;5.05;;;;;;;1.56;97.03;98978.63;10529428;28;20044;-70
2022/12/23 09:34:30;;;;;;;9.15;5.60;;;;;;;1.56;97.04;98970.50;10525339;28;20044;-71
2022/12/23 09:39:32;;;;;;;10.65;4.65;;;;;;;1.49;96.61;98970.75;10510582;28;20063;-69
2022/12/23 09:44:50;;;;;;;6.95;4.45;;;;;;;1.58;95.87;98962.16;10528910;28;20041;-70
2022/12/23 09:49:56;;;;;;;11.60;4.33;;;;;;;1.61;96.74;98977.84;10534204;28;20047;-70
2022/12/23 09:54:59;;;;;;;5.82;3.53;;;;;;;1.67;96.49;98969.50;10517215;28;20056;-70
2022/12/23 10:00:13;;;;;;;8.13;4.78;;;;;;;1.85;96.16;98962.81;10523837;28;20044;-71
2022/12/23 10:05:34;;;;;;;6.72;3.83;;;;;;;1.81;95.45;98950.91;10523897;28;20135;-70
2022/12/23 10:10:43;;;;;;;9.13;4.38;;;;;;;1.81;96.07;98962.53;10492088;28;20040;-70
2022/12/23 10:15:47;;;;;;;6.35;3.65;;;;;;;1.81;95.09;98951.72;10505432;28;20415;-71
2022/12/23 10:20:57;;;;;;;6.15;3.60;;;;;;;1.80;95.66;98949.28;10506797;28;20051;-70
2022/12/23 10:26:00;;;;;;;4.63;3.17;;;;;;;1.75;95.45;98947.38;10514174;28;20041;-72
2022/12/23 10:31:04;;;;;;;6.40;3.63;;;;;;;1.78;95.74;98954.13;10499573;28;20407;-72
2022/12/23 10:36:40;;;;;;;5.85;3.88;;;;;;;1.68;95.58;98945.97;10508036;28;20053;-72
2022/12/23 10:41:49;;;;;;;4.53;3.38;;;;;;;1.84;95.49;98944.94;10496926;28;20040;-71
2022/12/23 10:46:55;;;;;;;7.80;3.58;;;;;;;1.88;95.37;98929.81;10512807;28;20037;-72
2022/12/23 10:52:01;;;;;;;4.85;2.70;;;;;;;1.81;95.16;98930.06;10525087;28;20048;-72
2022/12/23 10:57:04;;;;;;;3.05;2.33;;;;;;;1.80;95.48;98946.56;10505630;28;20060;-71
2022/12/23 11:02:12;;;;;;;4.57;2.58;;;;;;;1.74;95.15;98943.03;10519340;28;20040;-72
2022/12/23 11:07:21;;;;;;;4.32;2.72;;;;;;;1.78;95.59;98946.84;10514597;28;20056;-71
2022/12/23 11:12:25;;;;;;;3.22;2.42;;;;;;;1.77;95.90;98945.22;10501347;28;20052;-71
2022/12/23 11:17:30;;;;;;;5.20;3.17;;;;;;;1.73;95.67;98943.28;10497785;28;20053;-71
2022/12/23 11:22:32;;;;;;;7.88;3.65;;;;;;;1.75;95.44;98955.47;10525233;28;20185;-72
2022/12/23 11:27:34;;;;;;;7.05;3.58;;;;;;;1.77;95.78;98953.31;10508900;28;20463;-72
2022/12/23 11:32:36;;;;;;;6.57;3.95;;;;;;;1.76;95.90;98950.88;10510362;28;20044;-73
2022/12/23 11:37:42;;;;;;;5.50;3.47;;;;;;;1.66;96.31;98958.94;10526182;28;20052;-72
2022/12/23 11:42:44;;;;;;;7.00;3.72;;;;;;;1.51;96.63;98963.19;10506897;28;20058;-73
2022/12/23 11:47:46;;;;;;;7.85;4.55;;;;;;;1.62;96.08;98964.06;10507900;28;20051;-73
2022/12/23 11:52:51;;;;;;;4.93;3.15;;;;;;;1.71;96.53;98967.88;10518764;28;20047;-74
2022/12/23 11:57:54;;;;;;;5.15;2.83;;;;;;;1.80;97.16;98962.78;10482662;28;20037;-74
2022/12/23 12:02:59;;;;;;;6.55;4.25;;;;;;;1.66;96.64;98972.47;10534126;28;20056;-73
2022/12/23 12:08:05;;;;;;;6.90;3.50;;;;;;;1.62;97.23;98974.88;10513392;28;20057;-73
2022/12/23 12:13:22;;;;;;;7.38;3.97;;;;;;;1.64;97.33;98972.72;10512226;28;20491;-73
2022/12/23 12:18:24;;;;;;;7.18;4.00;;;;;;;1.55;97.39;98973.47;10530362;28;20044;-74
2022/12/23 12:23:49;;;;;;;5.65;3.92;;;;;;;1.65;97.07;98982.47;10528370;28;20032;-72
2022/12/23 12:29:08;;;;;;;8.23;4.10;;;;;;;1.86;97.51;98987.94;10526583;28;20037;-73
2022/12/23 12:34:37;;;;;;;6.43;3.85;;;;;;;2.18;97.59;98971.56;10515057;28;20045;-72
2022/12/23 12:39:42;;;;;;;6.20;3.60;;;;;;;2.09;96.94;98974.81;10531127;28;20049;-73
2022/12/23 12:45:03;;;;;;;7.90;4.53;;;;;;;2.26;95.78;98974.56;10512648;28;20053;-73
2022/12/23 12:50:12;;;;;;;8.57;4.47;;;;;;;2.26;95.03;98969.16;10530704;28;20048;-73
2022/12/23 12:55:20;;;;;;;8.20;4.25;;;;;;;2.16;94.52;98962.91;10530078;28;20052;-72
2022/12/23 13:00:27;;;;;;;;;;;;;;;2.16;94.36;98958.28;10504698;28;20507;-72
2022/12/23 13:06:08;;;;;;;9.77;4.32;;;;;;;1.88;94.44;98974.97;10508900;28;19920;-72
2022/12/23 13:11:29;;;;;;;6.60;3.53;;;;;;;1.66;94.37;98975.97;10528186;28;20321;-72
2022/12/23 13:17:05;;;;;;;5.50;2.90;;;;;;;1.58;95.49;98978.38;10528376;28;20500;-72
2022/12/23 13:22:15;;;;;;;4.43;3.40;;;;;;;1.59;95.49;98978.13;10524380;28;20530;-74
2022/12/23 13:27:46;;;;;;;4.05;2.78;;;;;;;1.55;96.05;98968.06;10511011;28;20044;-73
2022/12/23 13:33:03;;;;;;;4.75;3.08;;;;;;;1.59;96.98;98963.78;10530021;28;20052;-74
2022/12/23 13:38:43;;;;;;;5.72;2.42;;;;;;;1.53;96.94;98957.53;10511434;28;20049;-73
2022/12/23 13:43:55;;;;;;;4.63;2.88;;;;;;;1.58;96.44;98954.88;10529211;28;20052;-73
2022/12/23 13:49:02;;;;;;;5.00;2.65;;;;;;;1.57;97.21;98953.25;10528901;28;20074;-72
2022/12/23 13:54:19;;;;;;;4.47;2.72;;;;;;;1.62;97.34;98952.44;10528624;28;20044;-74
2022/12/23 13:59:21;;;;;;;3.28;2.75;;;;;;;1.58;97.29;98954.88;10526718;28;20033;-75
2022/12/23 14:04:56;;;;;;;3.47;2.60;;;;;;;1.57;97.05;98955.13;10505830;28;20525;-74
2022/12/23 14:10:11;;;;;;;4.72;2.70;;;;;;;1.78;96.59;98954.13;10528444;28;20052;-73
2022/12/23 14:15:33;;;;;;;5.10;3.33;;;;;;;1.78;96.36;98954.13;10505354;28;20067;-73
2022/12/23 14:20:49;;;;;;;6.93;4.03;;;;;;;1.65;95.86;98955.44;10527764;28;20040;-75
2022/12/23 14:26:02;;;;;;;5.55;3.35;;;;;;;1.66;96.55;98959.75;10494095;28;20043;-73
2022/12/23 14:31:05;;;;;;;5.75;3.60;;;;;;;1.60;96.67;98960.00;10523141;28;20048;-74
2022/12/23 14:36:24;;;;;;;3.95;3.42;;;;;;;1.61;96.20;98961.63;10508349;28;20090;-73
2022/12/23 14:41:50;;;;;;;6.22;3.55;;;;;;;1.61;96.17;98956.22;10496412;28;20498;-73
2022/12/23 14:46:54;;;;;;;5.75;3.25;;;;;;;1.84;96.40;98961.19;10518130;28;20051;-74
2022/12/23 14:52:35;;;;;;;4.85;3.00;;;;;;;1.84;96.63;98961.19;10507304;28;20045;-74
2022/12/23 14:57:39;;;;;;;6.38;3.97;;;;;;;1.75;95.75;98958.19;10466090;28;20037;-73
2022/12/23 15:02:42;;;;;;;7.70;4.00;;;;;;;1.87;96.33;98952.53;10448685;28;20503;-73
2022/12/23 15:07:45;;;;;;;5.85;4.00;;;;;;;1.81;95.80;98948.19;10477822;28;20095;-73
2022/12/23 15:12:55;;;;;;;6.43;4.25;;;;;;;1.75;95.73;98958.19;10460283;28;20041;-72
2022/12/23 15:18:03;;;;;;;6.68;4.00;;;;;;;1.70;95.26;98944.63;10464844;28;20033;-72
2022/12/23 15:23:10;;;;;;;;;;;;;;;1.68;94.95;98948.69;10466886;28;20037;-72
2022/12/23 15:28:18;;;;;;;6.32;3.80;;;;;;;1.62;95.06;98947.03;10444971;28;20023;-72
2022/12/23 15:33:23;;;;;;;4.63;3.38;;;;;;;1.70;95.16;98952.75;10463217;28;20043;-73
2022/12/23 15:38:28;;;;;;;4.60;3.53;;;;;;;1.76;95.59;98950.88;10474749;28;20044;-72
2022/12/23 15:43:31;;;;;;;8.93;3.80;;;;;;;1.91;95.17;98945.53;10491016;28;20075;-72
2022/12/23 15:48:34;;;;;;;6.57;3.78;;;;;;;1.86;94.77;98945.50;10489339;28;20044;-72
2022/12/23 15:53:37;;;;;;;6.72;3.90;;;;;;;1.78;94.47;98952.25;10473828;28;20049;-71
2022/12/23 15:58:40;;;;;;;4.45;3.00;;;;;;;1.80;94.60;98952.78;10474941;28;20049;-73
2022/12/23 16:03:50;;;;;;;5.38;3.47;;;;;;;1.86;94.59;98950.91;10474443;28;20057;-73
2022/12/23 16:09:06;;;;;;;7.28;3.75;;;;;;;1.97;94.11;98949.06;10461804;28;20053;-72
2022/12/23 16:14:40;;;;;;;4.93;3.58;;;;;;;1.97;93.54;98941.75;10482268;28;20041;-71
2022/12/23 16:19:54;;;;;;;7.45;4.07;;;;;;;1.97;93.53;98939.03;10472367;28;20419;-73
2022/12/23 16:25:05;;;;;;;6.68;3.63;;;;;;;1.95;93.52;98935.00;10433156;28;20033;-71
2022/12/23 16:30:09;;;;;;;6.70;4.53;;;;;;;2.05;94.04;98935.81;10449490;28;20056;-71
2022/12/23 16:35:21;;;;;;;7.00;4.30;;;;;;;2.04;93.16;98945.00;10456128;28;20058;-71
2022/12/23 16:40:27;;;;;;;7.75;4.25;;;;;;;1.85;93.28;98938.47;10500272;28;20044;-72
2022/12/23 16:45:31;;;;;;;5.22;3.45;;;;;;;1.87;93.58;98939.00;10531711;28;20049;-72
2022/12/23 16:50:33;;;;;;;6.13;4.47;;;;;;;1.94;93.20;98934.19;10532325;28;20048;-72
2022/12/23 16:55:41;;;;;;;6.22;3.80;;;;;;;1.91;93.88;98940.13;10530597;28;20040;-71
2022/12/23 17:00:47;;;;;;;8.65;4.68;;;;;;;1.93;93.09;98937.97;10527331;28;20071;-72
2022/12/23 17:05:50;;;;;;;4.55;3.50;;;;;;;2.01;93.34;98934.72;10531102;28;20033;-71
2022/12/23 17:11:24;;;;;;;5.80;4.03;;;;;;;2.08;93.60;98919.06;10531052;28;20044;-72
2022/12/23 17:16:30;;;;;;;6.43;3.70;;;;;;;1.93;93.39;98931.75;10531033;28;20048;-73
2022/12/23 17:21:35;;;;;;;5.60;3.70;;;;;;;2.01;93.07;98929.31;10508785;28;20510;-72
2022/12/23 17:26:38;;;;;;;6.78;3.70;;;;;;;2.04;92.64;98923.34;10525694;28;20071;-71
2022/12/23 17:31:42;;;;;;;4.97;3.30;;;;;;;2.04;92.43;98917.13;10523704;28;20063;-72
2022/12/23 17:36:44;;;;;;;5.28;2.97;;;;;;;1.95;92.39;98914.16;10522573;28;20052;-71
2022/12/23 17:41:47;;;;;;;6.95;3.10;;;;;;;1.95;92.11;98900.63;10526505;28;20064;-72
2022/12/23 17:46:49;;;;;;;6.05;3.08;;;;;;;1.94;92.90;98903.59;10520063;28;20044;-70
2022/12/23 17:51:52;;;;;;;5.38;3.08;;;;;;;2.03;92.49;98897.38;10513406;28;20048;-70
2022/12/23 17:56:54;;;;;;;6.38;3.60;;;;;;;2.03;92.61;98889.28;10510280;28;20037;-72
2022/12/23 18:01:56;;;;;;;5.75;3.60;;;;;;;1.96;92.92;98886.03;10476677;28;20503;-71
2022/12/23 18:06:59;;;;;;;6.40;3.90;;;;;;;1.69;92.98;98882.72;10506136;28;20043;-71
2022/12/23 18:12:01;;;;;;;3.67;2.97;;;;;;;1.83;93.88;98878.41;10517668;28;20056;-71
2022/12/23 18:17:04;;;;;;;7.40;3.15;;;;;;;1.82;93.85;98882.22;10474951;28;20040;-72
2022/12/23 18:22:13;;;;;;;5.97;3.75;;;;;;;1.64;93.85;98878.09;10497426;28;20044;-73
2022/12/23 18:27:21;;;;;;;9.07;3.85;;;;;;;1.49;94.41;98883.47;10495063;28;20041;-74
2022/12/23 18:32:26;;;;;;;5.87;3.30;;;;;;;1.64;94.66;98888.09;10497918;28;20391;-73
2022/12/23 18:37:28;;;;;;;5.32;3.03;;;;;;;1.70;94.87;98879.72;10494722;28;20550;-73
2022/12/23 18:42:30;;;;;;;5.65;3.78;;;;;;;1.70;94.41;98881.63;10497610;28;20037;-75
2022/12/23 18:47:38;;;;;;;5.53;3.40;;;;;;;1.66;94.35;98878.66;10496521;28;20048;-75
2022/12/23 18:52:40;;;;;;;4.30;3.45;;;;;;;1.66;94.46;98877.84;10510485;28;20052;-77
2022/12/23 18:57:43;;;;;;;4.97;3.50;;;;;;;1.57;94.07;98882.16;10491760;28;20039;-75
2022/12/23 19:02:46;;;;;;;5.32;3.63;;;;;;;1.60;94.82;98876.22;10517131;28;20048;-75
2022/12/23 19:07:50;;;;;;;4.82;3.50;;;;;;;1.60;94.82;98873.50;10522233;28;20036;-76
2022/12/23 19:12:53;;;;;;;5.50;3.83;;;;;;;1.66;95.18;98875.94;10517969;28;20045;-74
2022/12/23 19:17:55;;;;;;;5.43;3.80;;;;;;;1.67;95.39;98884.88;10504011;28;20032;-76
2022/12/23 19:22:57;;;;;;;4.95;3.20;;;;;;;1.75;94.49;98892.47;10517325;28;20060;-74
2022/12/23 19:28:00;;;;;;;4.72;3.30;;;;;;;1.81;95.16;98891.41;10520609;28;20036;-74
2022/12/23 19:33:02;;;;;;;3.88;3.28;;;;;;;1.88;94.95;98874.91;10507369;28;20053;-74
2022/12/23 19:38:04;;;;;;;6.28;3.50;;;;;;;2.01;95.22;98886.03;10501135;28;20060;-75
2022/12/23 19:43:06;;;;;;;4.78;2.92;;;;;;;1.98;95.02;98883.88;10524936;28;20120;-73
2022/12/23 19:48:09;;;;;;;4.20;3.42;;;;;;;1.93;94.04;98881.16;10520584;28;20036;-73
2022/12/23 19:53:11;;;;;;;7.13;4.13;;;;;;;1.92;94.73;98882.25;10521443;28;20052;-73
2022/12/23 19:58:13;;;;;;;3.88;2.88;;;;;;;1.95;94.78;98870.88;10525468;28;20037;-72
2022/12/23 20:03:15;;;;;;;3.17;2.53;;;;;;;1.84;94.64;98869.22;10521572;28;20617;-74
2022/12/23 20:08:18;;;;;;;5.25;2.45;;;;;;;1.81;94.90;98877.88;10525550;28;20057;-73
2022/12/23 20:13:20;;;;;;;3.75;2.55;;;;;;;1.86;95.69;98877.88;10525500;28;20510;-73
2022/12/23 20:18:22;;;;;;;3.40;2.28;;;;;;;1.85;95.69;98865.44;10498947;28;20047;-74
2022/12/23 20:23:25;;;;;;;3.35;2.45;;;;;;;1.95;94.73;98875.47;10491216;28;20435;-74
2022/12/23 20:28:27;;;;;;;3.40;2.15;;;;;;;2.03;94.96;98878.44;10523751;28;20040;-74
2022/12/23 20:33:30;;;;;;;3.47;1.90;;;;;;;2.10;95.21;98879.03;10497243;28;20071;-74
2022/12/23 20:38:33;;;;;;;3.40;2.30;;;;;;;2.09;95.18;98872.00;10532446;28;20063;-73
2022/12/23 20:43:36;;;;;;;3.03;2.28;;;;;;;2.10;94.61;98873.63;10496693;28;20052;-74
2022/12/23 20:48:39;;;;;;;3.72;2.60;;;;;;;2.07;94.51;98871.41;10522076;28;20499;-73
2022/12/23 20:53:41;;;;;;;2.58;2.13;;;;;;;1.96;95.24;98866.28;10490754;28;20059;-73
2022/12/23 20:58:57;;;;;;;3.83;2.90;;;;;;;1.93;94.88;98875.75;10503711;28;20048;-72
2022/12/23 21:04:02;;;;;;;4.28;2.65;;;;;;;1.92;95.65;98878.72;10515373;28;20047;-73
2022/12/23 21:09:06;;;;;;;4.35;2.80;;;;;;;1.91;95.94;98880.63;10473556;28;20050;-73
2022/12/23 21:14:09;;;;;;;5.32;3.20;;;;;;;1.83;95.77;98874.91;10490223;28;20585;-72
2022/12/23 21:19:17;;;;;;;3.00;2.35;;;;;;;1.91;95.79;98880.63;10489326;28;20056;-73
2022/12/23 21:24:20;;;;;;;4.70;2.90;;;;;;;1.96;96.29;98877.91;10489461;28;20056;-73
2022/12/23 21:29:22;;;;;;;3.80;2.58;;;;;;;2.00;96.52;98872.78;10482740;28;20044;-72
2022/12/23 21:34:24;;;;;;;3.85;2.60;;;;;;;2.04;96.22;98874.66;10529294;28;20048;-73
2022/12/23 21:39:26;;;;;;;2.95;2.38;;;;;;;1.98;96.62;98883.06;10491281;28;20041;-73
2022/12/23 21:44:28;;;;;;;4.97;2.65;;;;;;;1.95;96.00;98870.88;10523988;28;20060;-73
2022/12/23 21:49:30;;;;;;;2.65;2.33;;;;;;;1.96;96.06;98885.22;10528171;28;20060;-74
2022/12/23 21:54:33;;;;;;;4.00;2.50;;;;;;;1.99;96.06;98882.78;10526051;28;20036;-74
2022/12/23 21:59:35;;;;;;;3.80;2.42;;;;;;;2.04;96.59;98877.38;10527244;28;20058;-73
2022/12/23 22:04:37;;;;;;;2.70;1.83;;;;;;;2.03;96.42;98883.88;10513808;28;20036;-74
2022/12/23 22:09:39;;;;;;;3.83;2.50;;;;;;;2.00;96.50;98879.00;10522138;28;20041;-73
2022/12/23 22:14:41;;;;;;;2.38;2.17;;;;;;;1.92;96.81;98874.13;10502489;28;20040;-73
2022/12/23 22:19:43;;;;;;;4.05;2.08;;;;;;;1.94;96.69;98868.44;10509810;28;20033;-72
2022/12/23 22:24:45;;;;;;;2.33;1.60;;;;;;;2.08;96.84;98878.47;10473002;28;20037;-72
2022/12/23 22:29:48;;;;;;;2.47;1.77;;;;;;;2.22;96.70;98869.81;10486240;28;20044;-72
2022/12/23 22:34:51;;;;;;;2.55;1.98;;;;;;;2.05;95.82;98870.06;10523375;28;20566;-72
2022/12/23 22:39:53;;;;;;;2.08;1.83;;;;;;;2.03;96.36;98872.22;10510262;28;20050;-73
2022/12/23 22:44:55;;;;;;;3.00;2.30;;;;;;;1.97;95.82;98879.53;10509057;28;20040;-73
2022/12/23 22:49:57;;;;;;;3.38;1.90;;;;;;;1.97;95.93;98874.13;10514158;28;20053;-74
2022/12/23 22:55:00;;;;;;;2.08;1.77;;;;;;;1.95;96.13;98872.78;10523795;28;20040;-74
2022/12/23 23:00:03;;;;;;;2.67;1.90;;;;;;;2.06;96.28;98877.09;10532863;28;20426;-74
2022/12/23 23:05:06;;;;;;;4.10;1.83;;;;;;;2.04;96.45;98871.97;10518074;28;20040;-74
2022/12/23 23:10:08;;;;;;;1.50;1.40;;;;;;;2.09;95.72;98882.81;10527589;28;20040;-75
2022/12/23 23:15:11;;;;;;;1.98;1.40;;;;;;;2.21;95.73;98885.25;10504659;28;20040;-74
2022/12/23 23:20:14;;;;;;;1.70;1.60;;;;;;;2.11;95.69;98879.84;10500190;28;20491;-74
2022/12/23 23:25:22;;;;;;;2.28;1.50;;;;;;;2.10;95.10;98876.31;10524311;28;20036;-74
2022/12/23 23:30:25;;;;;;;1.40;1.23;;;;;;;2.05;95.67;98875.47;10504617;28;20037;-74
2022/12/23 23:35:27;;;;;;;1.90;1.42;;;;;;;2.04;94.92;98882.78;10526682;28;20048;-74
2022/12/23 23:40:29;;;;;;;1.58;1.42;;;;;;;2.07;95.43;98890.34;10526701;28;20491;-74
2022/12/23 23:45:32;;;;;;;1.70;1.23;;;;;;;2.05;95.86;98891.72;10526045;28;20050;-75
2022/12/23 23:51:06;;;;;;;1.63;1.15;;;;;;;1.99;95.61;98890.91;10526796;28;20052;-75
2022/12/23 23:56:08;;;;;;;1.40;1.08;;;;;;;1.89;95.21;98895.47;10517020;28;20041;-73
